sensor_id;sensor_type;location;lat;lon;timestamp;temperature;humidity
21167;DHT22;10741;52.272;9.580;2023-07-31T00:00:11;16.20;99.90
21167;DHT22;10741;52.272;9.580;2023-07-31T00:02:38;16.20;99.90
21167;DHT22;10741;52.272;9.580;2023-07-31T00:05:04;16.30;99.90
21167;DHT22;10741;52.272;9.580;2023-07-31T00:07:30;16.30;99.90
21167;DHT22;10741;52.272;9.580;2023-07-31T00:09:56;16.30;99.90
21167;DHT22;10741;52.272;9.580;2023-07-31T00:12:24;16.20;99.90
21167;DHT22;10741;52.272;9.580;2023-07-31T00:14:50;16.30;99.90
21167;DHT22;10741;52.272;9.580;2023-07-31T00:17:17;16.30;99.90
21167;DHT22;10741;52.272;9.580;2023-07-31T00:19:43;16.30;99.90
21167;DHT22;10741;52.272;9.580;2023-07-31T00:22:08;16.30;99.90
21167;DHT22;10741;52.272;9.580;2023-07-31T00:24:34;16.20;99.90
21167;DHT22;10741;52.272;9.580;2023-07-31T00:27:00;16.20;99.90
21167;DHT22;10741;52.272;9.580;2023-07-31T00:29:25;16.20;99.90
21167;DHT22;10741;52.272;9.580;2023-07-31T00:31:51;16.20;99.90
21167;DHT22;10741;52.272;9.580;2023-07-31T00:34:17;16.20;99.90
21167;DHT22;10741;52.272;9.580;2023-07-31T00:36:42;16.20;99.90
21167;DHT22;10741;52.272;9.580;2023-07-31T00:39:08;16.20;99.90
21167;DHT22;10741;52.272;9.580;2023-07-31T00:41:34;16.10;99.90
21167;DHT22;10741;52.272;9.580;2023-07-31T00:43:59;16.10;99.90
21167;DHT22;10741;52.272;9.580;2023-07-31T00:46:25;16.10;99.90
21167;DHT22;10741;52.272;9.580;2023-07-31T00:48:51;16.10;99.90
21167;DHT22;10741;52.272;9.580;2023-07-31T00:51:17;16.10;99.90
21167;DHT22;10741;52.272;9.580;2023-07-31T00:53:43;16.10;99.90
21167;DHT22;10741;52.272;9.580;2023-07-31T00:56:09;16.10;99.90
21167;DHT22;10741;52.272;9.580;2023-07-31T00:58:35;16.10;99.90
21167;DHT22;10741;52.272;9.580;2023-07-31T01:01:01;16.10;99.90
21167;DHT22;10741;52.272;9.580;2023-07-31T01:03:27;16.10;99.90
21167;DHT22;10741;52.272;9.580;2023-07-31T01:06:17;16.10;99.90
21167;DHT22;10741;52.272;9.580;2023-07-31T01:09:12;16.10;99.90
21167;DHT22;10741;52.272;9.580;2023-07-31T01:11:53;16.10;99.90
21167;DHT22;10741;52.272;9.580;2023-07-31T01:14:21;16.10;99.90
21167;DHT22;10741;52.272;9.580;2023-07-31T01:16:47;16.10;99.90
21167;DHT22;10741;52.272;9.580;2023-07-31T01:19:14;16.10;99.90
21167;DHT22;10741;52.272;9.580;2023-07-31T01:27:23;16.10;99.90
21167;DHT22;10741;52.272;9.580;2023-07-31T01:29:59;16.10;99.90
21167;DHT22;10741;52.272;9.580;2023-07-31T01:32:28;16.10;99.90
21167;DHT22;10741;52.272;9.580;2023-07-31T01:34:55;16.10;99.90
21167;DHT22;10741;52.272;9.580;2023-07-31T01:37:28;16.10;99.90
21167;DHT22;10741;52.272;9.580;2023-07-31T01:39:54;16.10;99.90
21167;DHT22;10741;52.272;9.580;2023-07-31T01:42:20;16.10;99.90
21167;DHT22;10741;52.272;9.580;2023-07-31T01:44:46;16.10;99.90
21167;DHT22;10741;52.272;9.580;2023-07-31T01:47:12;16.10;99.90
21167;DHT22;10741;52.272;9.580;2023-07-31T01:49:37;16.10;99.90
21167;DHT22;10741;52.272;9.580;2023-07-31T01:52:03;16.10;99.90
21167;DHT22;10741;52.272;9.580;2023-07-31T01:54:29;16.10;99.90
21167;DHT22;10741;52.272;9.580;2023-07-31T01:56:55;16.10;99.90
21167;DHT22;10741;52.272;9.580;2023-07-31T01:59:21;16.00;99.90
21167;DHT22;10741;52.272;9.580;2023-07-31T02:01:46;16.00;99.90
21167;DHT22;10741;52.272;9.580;2023-07-31T02:04:12;16.10;99.90
21167;DHT22;10741;52.272;9.580;2023-07-31T02:06:39;16.10;99.90
21167;DHT22;10741;52.272;9.580;2023-07-31T02:09:05;16.10;99.90
21167;DHT22;10741;52.272;9.580;2023-07-31T02:11:31;16.10;99.90
21167;DHT22;10741;52.272;9.580;2023-07-31T02:13:57;16.10;99.90
21167;DHT22;10741;52.272;9.580;2023-07-31T02:16:22;16.10;99.90
21167;DHT22;10741;52.272;9.580;2023-07-31T02:18:48;16.10;99.90
21167;DHT22;10741;52.272;9.580;2023-07-31T02:21:14;16.10;99.90
21167;DHT22;10741;52.272;9.580;2023-07-31T02:23:39;16.20;99.90
21167;DHT22;10741;52.272;9.580;2023-07-31T02:26:05;16.20;99.90
21167;DHT22;10741;52.272;9.580;2023-07-31T02:28:31;16.20;99.90
21167;DHT22;10741;52.272;9.580;2023-07-31T02:30:57;16.20;99.90
21167;DHT22;10741;52.272;9.580;2023-07-31T02:33:22;16.20;99.90
21167;DHT22;10741;52.272;9.580;2023-07-31T02:35:48;16.20;99.90
21167;DHT22;10741;52.272;9.580;2023-07-31T02:38:14;16.20;99.90
21167;DHT22;10741;52.272;9.580;2023-07-31T02:40:40;16.20;99.90
21167;DHT22;10741;52.272;9.580;2023-07-31T02:43:09;16.20;99.90
21167;DHT22;10741;52.272;9.580;2023-07-31T02:45:34;16.20;99.90
21167;DHT22;10741;52.272;9.580;2023-07-31T02:48:00;16.20;99.90
21167;DHT22;10741;52.272;9.580;2023-07-31T02:50:26;16.10;99.90
21167;DHT22;10741;52.272;9.580;2023-07-31T02:52:53;16.10;99.90
21167;DHT22;10741;52.272;9.580;2023-07-31T02:55:19;16.10;99.90
21167;DHT22;10741;52.272;9.580;2023-07-31T02:57:44;16.10;99.90
21167;DHT22;10741;52.272;9.580;2023-07-31T03:00:10;16.10;99.90
21167;DHT22;10741;52.272;9.580;2023-07-31T03:02:36;16.10;99.90
21167;DHT22;10741;52.272;9.580;2023-07-31T03:05:02;16.10;99.90
21167;DHT22;10741;52.272;9.580;2023-07-31T03:07:28;16.10;99.90
21167;DHT22;10741;52.272;9.580;2023-07-31T03:09:55;16.10;99.90
21167;DHT22;10741;52.272;9.580;2023-07-31T03:12:21;16.10;99.90
21167;DHT22;10741;52.272;9.580;2023-07-31T03:14:47;16.00;99.90
21167;DHT22;10741;52.272;9.580;2023-07-31T03:17:12;16.10;99.90
21167;DHT22;10741;52.272;9.580;2023-07-31T03:19:38;16.10;99.90
21167;DHT22;10741;52.272;9.580;2023-07-31T03:22:04;16.10;99.90
21167;DHT22;10741;52.272;9.580;2023-07-31T03:24:30;16.20;99.90
21167;DHT22;10741;52.272;9.580;2023-07-31T03:26:56;16.10;99.90
21167;DHT22;10741;52.272;9.580;2023-07-31T03:29:21;16.10;99.90
21167;DHT22;10741;52.272;9.580;2023-07-31T03:31:47;16.00;99.90
21167;DHT22;10741;52.272;9.580;2023-07-31T03:34:13;15.90;99.90
21167;DHT22;10741;52.272;9.580;2023-07-31T03:36:39;15.90;99.90
21167;DHT22;10741;52.272;9.580;2023-07-31T03:39:04;15.90;99.90
21167;DHT22;10741;52.272;9.580;2023-07-31T03:41:30;15.80;99.90
21167;DHT22;10741;52.272;9.580;2023-07-31T03:43:56;15.80;99.90
21167;DHT22;10741;52.272;9.580;2023-07-31T03:46:22;15.80;99.90
21167;DHT22;10741;52.272;9.580;2023-07-31T03:48:48;15.70;99.90
21167;DHT22;10741;52.272;9.580;2023-07-31T03:51:14;15.70;99.90
21167;DHT22;10741;52.272;9.580;2023-07-31T03:53:40;15.70;99.90
21167;DHT22;10741;52.272;9.580;2023-07-31T03:56:06;15.70;99.90
21167;DHT22;10741;52.272;9.580;2023-07-31T03:58:31;15.70;99.90
21167;DHT22;10741;52.272;9.580;2023-07-31T04:00:57;15.70;99.90
21167;DHT22;10741;52.272;9.580;2023-07-31T04:03:23;15.80;99.90
21167;DHT22;10741;52.272;9.580;2023-07-31T04:05:49;15.70;99.90
21167;DHT22;10741;52.272;9.580;2023-07-31T04:08:14;15.70;99.90
21167;DHT22;10741;52.272;9.580;2023-07-31T04:10:40;15.80;99.90
21167;DHT22;10741;52.272;9.580;2023-07-31T04:13:06;15.70;99.90
21167;DHT22;10741;52.272;9.580;2023-07-31T04:15:31;15.70;99.90
21167;DHT22;10741;52.272;9.580;2023-07-31T04:17:57;15.60;99.90
21167;DHT22;10741;52.272;9.580;2023-07-31T04:20:23;15.60;99.90
21167;DHT22;10741;52.272;9.580;2023-07-31T04:22:49;15.60;99.90
21167;DHT22;10741;52.272;9.580;2023-07-31T04:25:15;15.70;99.90
21167;DHT22;10741;52.272;9.580;2023-07-31T04:27:40;15.60;99.90
21167;DHT22;10741;52.272;9.580;2023-07-31T04:30:07;15.60;99.90
21167;DHT22;10741;52.272;9.580;2023-07-31T04:32:33;15.60;99.90
21167;DHT22;10741;52.272;9.580;2023-07-31T04:34:59;15.50;99.90
21167;DHT22;10741;52.272;9.580;2023-07-31T04:37:24;15.50;99.90
21167;DHT22;10741;52.272;9.580;2023-07-31T04:39:50;15.50;99.90
21167;DHT22;10741;52.272;9.580;2023-07-31T04:42:16;15.50;99.90
21167;DHT22;10741;52.272;9.580;2023-07-31T04:44:41;15.60;99.90
21167;DHT22;10741;52.272;9.580;2023-07-31T04:47:07;15.60;99.90
21167;DHT22;10741;52.272;9.580;2023-07-31T04:49:33;15.60;99.90
21167;DHT22;10741;52.272;9.580;2023-07-31T04:51:59;15.50;99.90
21167;DHT22;10741;52.272;9.580;2023-07-31T04:54:24;15.50;99.90
21167;DHT22;10741;52.272;9.580;2023-07-31T04:56:50;15.60;99.90
21167;DHT22;10741;52.272;9.580;2023-07-31T04:59:16;15.60;99.90
21167;DHT22;10741;52.272;9.580;2023-07-31T05:01:41;15.60;99.90
21167;DHT22;10741;52.272;9.580;2023-07-31T05:04:08;15.60;99.90
21167;DHT22;10741;52.272;9.580;2023-07-31T05:06:34;15.60;99.90
21167;DHT22;10741;52.272;9.580;2023-07-31T05:08:59;15.70;99.90
21167;DHT22;10741;52.272;9.580;2023-07-31T05:11:25;15.70;99.90
21167;DHT22;10741;52.272;9.580;2023-07-31T05:13:51;15.70;99.90
21167;DHT22;10741;52.272;9.580;2023-07-31T05:16:16;15.80;99.90
21167;DHT22;10741;52.272;9.580;2023-07-31T05:18:42;15.80;99.90
21167;DHT22;10741;52.272;9.580;2023-07-31T05:21:08;15.80;99.90
21167;DHT22;10741;52.272;9.580;2023-07-31T05:23:33;15.80;99.90
21167;DHT22;10741;52.272;9.580;2023-07-31T05:26:06;15.80;99.90
21167;DHT22;10741;52.272;9.580;2023-07-31T05:28:34;15.90;99.90
21167;DHT22;10741;52.272;9.580;2023-07-31T05:31:02;15.90;99.90
21167;DHT22;10741;52.272;9.580;2023-07-31T05:33:28;15.90;99.90
21167;DHT22;10741;52.272;9.580;2023-07-31T05:35:53;16.00;99.90
21167;DHT22;10741;52.272;9.580;2023-07-31T05:38:19;16.00;99.90
21167;DHT22;10741;52.272;9.580;2023-07-31T05:40:45;16.10;99.90
21167;DHT22;10741;52.272;9.580;2023-07-31T05:43:11;16.00;99.90
21167;DHT22;10741;52.272;9.580;2023-07-31T05:45:36;16.10;99.90
21167;DHT22;10741;52.272;9.580;2023-07-31T05:48:03;16.00;99.90
21167;DHT22;10741;52.272;9.580;2023-07-31T05:50:29;16.00;99.90
21167;DHT22;10741;52.272;9.580;2023-07-31T05:52:55;16.00;99.90
21167;DHT22;10741;52.272;9.580;2023-07-31T05:55:21;16.00;99.90
21167;DHT22;10741;52.272;9.580;2023-07-31T05:57:46;16.10;99.90
21167;DHT22;10741;52.272;9.580;2023-07-31T06:00:13;16.10;99.90
21167;DHT22;10741;52.272;9.580;2023-07-31T06:02:39;16.10;99.90
21167;DHT22;10741;52.272;9.580;2023-07-31T06:05:05;16.10;99.90
21167;DHT22;10741;52.272;9.580;2023-07-31T06:07:32;16.00;99.90
21167;DHT22;10741;52.272;9.580;2023-07-31T06:09:57;16.10;99.90
21167;DHT22;10741;52.272;9.580;2023-07-31T06:12:29;16.10;99.90
21167;DHT22;10741;52.272;9.580;2023-07-31T06:14:54;16.10;99.90
21167;DHT22;10741;52.272;9.580;2023-07-31T06:17:20;16.20;99.90
21167;DHT22;10741;52.272;9.580;2023-07-31T06:19:47;16.10;99.90
21167;DHT22;10741;52.272;9.580;2023-07-31T06:22:12;16.10;99.90
21167;DHT22;10741;52.272;9.580;2023-07-31T06:24:38;16.20;99.90
21167;DHT22;10741;52.272;9.580;2023-07-31T06:27:04;16.10;99.90
21167;DHT22;10741;52.272;9.580;2023-07-31T06:29:31;16.10;99.90
21167;DHT22;10741;52.272;9.580;2023-07-31T06:31:57;16.10;99.90
21167;DHT22;10741;52.272;9.580;2023-07-31T06:34:23;15.50;99.90
21167;DHT22;10741;52.272;9.580;2023-07-31T06:36:49;16.10;99.90
21167;DHT22;10741;52.272;9.580;2023-07-31T06:39:15;16.10;99.90
21167;DHT22;10741;52.272;9.580;2023-07-31T06:41:42;16.10;99.90
21167;DHT22;10741;52.272;9.580;2023-07-31T06:44:08;16.10;99.90
21167;DHT22;10741;52.272;9.580;2023-07-31T06:46:34;16.10;99.90
21167;DHT22;10741;52.272;9.580;2023-07-31T06:49:00;16.10;99.90
21167;DHT22;10741;52.272;9.580;2023-07-31T06:51:25;16.10;99.90
21167;DHT22;10741;52.272;9.580;2023-07-31T06:53:51;16.10;99.90
21167;DHT22;10741;52.272;9.580;2023-07-31T06:56:17;16.20;99.90
21167;DHT22;10741;52.272;9.580;2023-07-31T06:58:42;16.20;99.90
21167;DHT22;10741;52.272;9.580;2023-07-31T07:01:08;16.20;99.90
21167;DHT22;10741;52.272;9.580;2023-07-31T07:03:34;16.20;99.90
21167;DHT22;10741;52.272;9.580;2023-07-31T07:06:00;16.20;99.90
21167;DHT22;10741;52.272;9.580;2023-07-31T07:08:26;16.20;99.90
21167;DHT22;10741;52.272;9.580;2023-07-31T07:10:52;16.20;99.90
21167;DHT22;10741;52.272;9.580;2023-07-31T07:13:18;16.20;99.90
21167;DHT22;10741;52.272;9.580;2023-07-31T07:15:48;16.20;99.90
21167;DHT22;10741;52.272;9.580;2023-07-31T07:18:14;16.30;99.90
21167;DHT22;10741;52.272;9.580;2023-07-31T07:20:40;16.30;99.90
21167;DHT22;10741;52.272;9.580;2023-07-31T07:23:06;16.30;99.90
21167;DHT22;10741;52.272;9.580;2023-07-31T07:25:31;16.40;99.90
21167;DHT22;10741;52.272;9.580;2023-07-31T07:27:57;16.40;99.90
21167;DHT22;10741;52.272;9.580;2023-07-31T07:30:23;16.50;99.90
21167;DHT22;10741;52.272;9.580;2023-07-31T07:32:50;16.50;99.90
21167;DHT22;10741;52.272;9.580;2023-07-31T07:35:16;16.50;99.90
21167;DHT22;10741;52.272;9.580;2023-07-31T07:37:45;16.40;99.90
21167;DHT22;10741;52.272;9.580;2023-07-31T07:40:11;16.50;99.90
21167;DHT22;10741;52.272;9.580;2023-07-31T07:42:37;16.40;99.90
21167;DHT22;10741;52.272;9.580;2023-07-31T07:55:51;16.70;99.90
21167;DHT22;10741;52.272;9.580;2023-07-31T07:58:17;16.60;99.90
21167;DHT22;10741;52.272;9.580;2023-07-31T08:00:49;16.70;99.90
21167;DHT22;10741;52.272;9.580;2023-07-31T08:03:15;16.70;99.90
21167;DHT22;10741;52.272;9.580;2023-07-31T08:05:42;16.70;99.90
21167;DHT22;10741;52.272;9.580;2023-07-31T08:08:08;16.80;99.90
21167;DHT22;10741;52.272;9.580;2023-07-31T08:10:34;16.80;99.90
21167;DHT22;10741;52.272;9.580;2023-07-31T08:12:59;16.80;99.90
21167;DHT22;10741;52.272;9.580;2023-07-31T08:15:25;16.90;99.90
21167;DHT22;10741;52.272;9.580;2023-07-31T08:17:51;17.00;99.90
21167;DHT22;10741;52.272;9.580;2023-07-31T08:20:17;17.10;99.90
21167;DHT22;10741;52.272;9.580;2023-07-31T08:22:42;17.20;99.90
21167;DHT22;10741;52.272;9.580;2023-07-31T08:25:08;17.20;99.90
21167;DHT22;10741;52.272;9.580;2023-07-31T08:27:34;17.20;99.90
21167;DHT22;10741;52.272;9.580;2023-07-31T08:30:00;17.30;99.90
21167;DHT22;10741;52.272;9.580;2023-07-31T08:32:25;17.30;99.90
21167;DHT22;10741;52.272;9.580;2023-07-31T08:34:51;17.30;99.90
21167;DHT22;10741;52.272;9.580;2023-07-31T08:37:17;17.20;99.90
21167;DHT22;10741;52.272;9.580;2023-07-31T08:39:42;17.20;99.90
21167;DHT22;10741;52.272;9.580;2023-07-31T08:42:08;17.30;99.90
21167;DHT22;10741;52.272;9.580;2023-07-31T08:44:35;17.10;99.90
21167;DHT22;10741;52.272;9.580;2023-07-31T08:47:01;17.20;99.90
21167;DHT22;10741;52.272;9.580;2023-07-31T08:49:27;17.20;99.90
21167;DHT22;10741;52.272;9.580;2023-07-31T08:51:54;17.10;99.90
21167;DHT22;10741;52.272;9.580;2023-07-31T08:54:23;17.10;99.90
21167;DHT22;10741;52.272;9.580;2023-07-31T08:56:50;17.10;99.90
21167;DHT22;10741;52.272;9.580;2023-07-31T08:59:18;17.10;99.90
21167;DHT22;10741;52.272;9.580;2023-07-31T09:01:49;17.10;99.90
21167;DHT22;10741;52.272;9.580;2023-07-31T09:04:16;17.10;99.90
21167;DHT22;10741;52.272;9.580;2023-07-31T09:06:44;17.30;99.90
21167;DHT22;10741;52.272;9.580;2023-07-31T09:09:10;17.30;99.90
21167;DHT22;10741;52.272;9.580;2023-07-31T09:11:37;17.30;99.90
21167;DHT22;10741;52.272;9.580;2023-07-31T09:14:03;17.30;99.90
21167;DHT22;10741;52.272;9.580;2023-07-31T09:16:34;17.30;99.90
21167;DHT22;10741;52.272;9.580;2023-07-31T09:19:00;17.40;99.90
21167;DHT22;10741;52.272;9.580;2023-07-31T09:21:30;17.30;99.90
21167;DHT22;10741;52.272;9.580;2023-07-31T09:23:57;17.30;99.90
21167;DHT22;10741;52.272;9.580;2023-07-31T09:28:56;17.20;99.90
21167;DHT22;10741;52.272;9.580;2023-07-31T09:31:42;17.30;99.90
21167;DHT22;10741;52.272;9.580;2023-07-31T09:34:08;17.40;99.90
21167;DHT22;10741;52.272;9.580;2023-07-31T09:36:42;17.40;99.90
21167;DHT22;10741;52.272;9.580;2023-07-31T09:39:12;17.30;99.90
21167;DHT22;10741;52.272;9.580;2023-07-31T09:41:40;17.30;99.90
21167;DHT22;10741;52.272;9.580;2023-07-31T09:44:06;17.30;99.90
21167;DHT22;10741;52.272;9.580;2023-07-31T09:46:35;17.30;99.90
21167;DHT22;10741;52.272;9.580;2023-07-31T09:49:08;17.30;99.90
21167;DHT22;10741;52.272;9.580;2023-07-31T09:51:35;17.40;99.90
21167;DHT22;10741;52.272;9.580;2023-07-31T09:54:09;17.60;99.90
21167;DHT22;10741;52.272;9.580;2023-07-31T09:56:37;17.70;99.90
21167;DHT22;10741;52.272;9.580;2023-07-31T09:59:04;17.80;99.90
21167;DHT22;10741;52.272;9.580;2023-07-31T10:01:30;17.90;99.90
21167;DHT22;10741;52.272;9.580;2023-07-31T10:03:57;17.90;99.90
21167;DHT22;10741;52.272;9.580;2023-07-31T10:06:24;17.90;99.90
21167;DHT22;10741;52.272;9.580;2023-07-31T10:08:51;17.90;99.90
21167;DHT22;10741;52.272;9.580;2023-07-31T10:11:19;17.80;99.90
21167;DHT22;10741;52.272;9.580;2023-07-31T10:13:45;17.80;99.90
21167;DHT22;10741;52.272;9.580;2023-07-31T10:16:12;17.90;99.90
21167;DHT22;10741;52.272;9.580;2023-07-31T10:18:40;17.90;99.90
21167;DHT22;10741;52.272;9.580;2023-07-31T10:21:06;17.90;99.90
21167;DHT22;10741;52.272;9.580;2023-07-31T10:23:32;17.90;99.90
21167;DHT22;10741;52.272;9.580;2023-07-31T10:25:59;17.90;99.90
21167;DHT22;10741;52.272;9.580;2023-07-31T10:28:26;17.80;99.90
21167;DHT22;10741;52.272;9.580;2023-07-31T10:30:52;17.90;99.90
21167;DHT22;10741;52.272;9.580;2023-07-31T10:33:19;18.00;99.90
21167;DHT22;10741;52.272;9.580;2023-07-31T10:35:47;18.10;99.90
21167;DHT22;10741;52.272;9.580;2023-07-31T10:38:13;18.20;99.90
21167;DHT22;10741;52.272;9.580;2023-07-31T10:40:40;18.10;99.90
21167;DHT22;10741;52.272;9.580;2023-07-31T10:43:06;18.10;99.90
21167;DHT22;10741;52.272;9.580;2023-07-31T10:45:39;18.20;99.90
21167;DHT22;10741;52.272;9.580;2023-07-31T10:48:13;18.10;99.90
21167;DHT22;10741;52.272;9.580;2023-07-31T10:50:47;18.00;99.90
21167;DHT22;10741;52.272;9.580;2023-07-31T10:53:30;18.10;99.90
21167;DHT22;10741;52.272;9.580;2023-07-31T10:56:04;18.00;99.90
21167;DHT22;10741;52.272;9.580;2023-07-31T10:58:30;18.00;99.90
21167;DHT22;10741;52.272;9.580;2023-07-31T11:01:01;18.00;99.90
21167;DHT22;10741;52.272;9.580;2023-07-31T11:03:48;18.00;99.90
21167;DHT22;10741;52.272;9.580;2023-07-31T11:06:17;18.10;99.90
21167;DHT22;10741;52.272;9.580;2023-07-31T11:08:48;18.20;99.90
21167;DHT22;10741;52.272;9.580;2023-07-31T11:11:18;18.30;99.90
21167;DHT22;10741;52.272;9.580;2023-07-31T11:13:46;18.40;99.90
21167;DHT22;10741;52.272;9.580;2023-07-31T11:16:16;18.40;99.90
21167;DHT22;10741;52.272;9.580;2023-07-31T11:18:44;18.50;99.90
21167;DHT22;10741;52.272;9.580;2023-07-31T11:21:15;18.40;99.90
21167;DHT22;10741;52.272;9.580;2023-07-31T11:23:41;18.50;99.90
21167;DHT22;10741;52.272;9.580;2023-07-31T11:26:10;18.60;99.90
21167;DHT22;10741;52.272;9.580;2023-07-31T11:28:37;18.70;99.90
21167;DHT22;10741;52.272;9.580;2023-07-31T11:31:05;18.70;99.90
21167;DHT22;10741;52.272;9.580;2023-07-31T11:33:31;18.70;99.90
21167;DHT22;10741;52.272;9.580;2023-07-31T11:35:57;18.80;99.90
21167;DHT22;10741;52.272;9.580;2023-07-31T11:38:27;18.80;99.90
21167;DHT22;10741;52.272;9.580;2023-07-31T11:41:03;18.70;99.90
21167;DHT22;10741;52.272;9.580;2023-07-31T11:43:33;18.80;99.90
21167;DHT22;10741;52.272;9.580;2023-07-31T11:46:01;18.90;99.90
21167;DHT22;10741;52.272;9.580;2023-07-31T11:48:33;18.80;99.90
21167;DHT22;10741;52.272;9.580;2023-07-31T11:51:05;18.80;99.90
21167;DHT22;10741;52.272;9.580;2023-07-31T11:53:33;18.90;99.90
21167;DHT22;10741;52.272;9.580;2023-07-31T11:56:01;19.00;99.90
21167;DHT22;10741;52.272;9.580;2023-07-31T11:58:29;18.90;99.90
21167;DHT22;10741;52.272;9.580;2023-07-31T12:00:57;18.90;99.90
21167;DHT22;10741;52.272;9.580;2023-07-31T12:03:23;19.00;99.90
21167;DHT22;10741;52.272;9.580;2023-07-31T12:05:49;18.90;99.90
21167;DHT22;10741;52.272;9.580;2023-07-31T12:08:15;18.90;99.90
21167;DHT22;10741;52.272;9.580;2023-07-31T12:10:42;18.90;99.90
21167;DHT22;10741;52.272;9.580;2023-07-31T12:13:10;18.90;99.90
21167;DHT22;10741;52.272;9.580;2023-07-31T12:15:43;18.80;99.90
21167;DHT22;10741;52.272;9.580;2023-07-31T12:18:11;18.70;99.90
21167;DHT22;10741;52.272;9.580;2023-07-31T12:20:54;18.60;99.90
21167;DHT22;10741;52.272;9.580;2023-07-31T12:23:22;18.50;99.90
21167;DHT22;10741;52.272;9.580;2023-07-31T12:26:13;18.60;99.90
21167;DHT22;10741;52.272;9.580;2023-07-31T12:28:47;18.60;99.90
21167;DHT22;10741;52.272;9.580;2023-07-31T12:31:18;18.60;99.90
21167;DHT22;10741;52.272;9.580;2023-07-31T12:33:45;18.80;99.90
21167;DHT22;10741;52.272;9.580;2023-07-31T12:36:13;18.80;99.90
21167;DHT22;10741;52.272;9.580;2023-07-31T12:38:40;19.00;99.90
21167;DHT22;10741;52.272;9.580;2023-07-31T12:41:06;19.00;99.90
21167;DHT22;10741;52.272;9.580;2023-07-31T12:43:33;19.00;99.90
21167;DHT22;10741;52.272;9.580;2023-07-31T12:45:59;18.80;99.90
21167;DHT22;10741;52.272;9.580;2023-07-31T12:48:25;18.80;99.90
21167;DHT22;10741;52.272;9.580;2023-07-31T12:50:51;18.80;99.90
21167;DHT22;10741;52.272;9.580;2023-07-31T12:53:17;18.90;99.90
21167;DHT22;10741;52.272;9.580;2023-07-31T12:55:42;19.10;99.90
21167;DHT22;10741;52.272;9.580;2023-07-31T12:58:08;19.20;99.90
21167;DHT22;10741;52.272;9.580;2023-07-31T13:00:34;19.30;99.90
21167;DHT22;10741;52.272;9.580;2023-07-31T13:03:00;19.40;99.90
21167;DHT22;10741;52.272;9.580;2023-07-31T13:05:27;19.30;99.90
21167;DHT22;10741;52.272;9.580;2023-07-31T13:07:53;19.40;99.90
21167;DHT22;10741;52.272;9.580;2023-07-31T13:10:20;19.30;99.90
21167;DHT22;10741;52.272;9.580;2023-07-31T13:12:45;19.20;99.90
21167;DHT22;10741;52.272;9.580;2023-07-31T13:15:12;19.20;99.90
21167;DHT22;10741;52.272;9.580;2023-07-31T13:17:38;19.40;99.90
21167;DHT22;10741;52.272;9.580;2023-07-31T13:20:04;19.70;99.90
21167;DHT22;10741;52.272;9.580;2023-07-31T13:22:30;19.80;99.90
21167;DHT22;10741;52.272;9.580;2023-07-31T13:24:56;19.80;99.90
21167;DHT22;10741;52.272;9.580;2023-07-31T13:27:22;20.00;99.90
21167;DHT22;10741;52.272;9.580;2023-07-31T13:29:54;20.10;99.90
21167;DHT22;10741;52.272;9.580;2023-07-31T13:32:20;20.00;99.90
21167;DHT22;10741;52.272;9.580;2023-07-31T13:34:47;20.20;99.90
21167;DHT22;10741;52.272;9.580;2023-07-31T13:37:13;20.40;99.90
21167;DHT22;10741;52.272;9.580;2023-07-31T13:39:39;20.60;99.90
21167;DHT22;10741;52.272;9.580;2023-07-31T13:42:06;20.50;99.90
21167;DHT22;10741;52.272;9.580;2023-07-31T13:44:36;20.30;99.90
21167;DHT22;10741;52.272;9.580;2023-07-31T13:47:02;20.10;99.90
21167;DHT22;10741;52.272;9.580;2023-07-31T13:49:29;19.80;99.90
21167;DHT22;10741;52.272;9.580;2023-07-31T13:51:55;19.60;99.90
21167;DHT22;10741;52.272;9.580;2023-07-31T13:54:22;19.50;99.90
21167;DHT22;10741;52.272;9.580;2023-07-31T13:56:48;19.40;99.90
21167;DHT22;10741;52.272;9.580;2023-07-31T13:59:14;19.40;99.90
21167;DHT22;10741;52.272;9.580;2023-07-31T14:01:42;19.20;99.90
21167;DHT22;10741;52.272;9.580;2023-07-31T14:04:08;19.20;99.90
21167;DHT22;10741;52.272;9.580;2023-07-31T14:06:33;19.30;99.90
21167;DHT22;10741;52.272;9.580;2023-07-31T14:08:59;19.30;99.90
21167;DHT22;10741;52.272;9.580;2023-07-31T14:11:25;19.30;99.90
21167;DHT22;10741;52.272;9.580;2023-07-31T14:13:51;19.20;99.90
21167;DHT22;10741;52.272;9.580;2023-07-31T14:16:17;19.30;99.90
21167;DHT22;10741;52.272;9.580;2023-07-31T14:18:43;19.60;99.90
21167;DHT22;10741;52.272;9.580;2023-07-31T14:21:08;19.80;99.90
21167;DHT22;10741;52.272;9.580;2023-07-31T14:23:34;20.00;99.90
21167;DHT22;10741;52.272;9.580;2023-07-31T14:26:00;20.10;99.90
21167;DHT22;10741;52.272;9.580;2023-07-31T14:28:26;20.30;99.90
21167;DHT22;10741;52.272;9.580;2023-07-31T14:30:51;20.10;99.90
21167;DHT22;10741;52.272;9.580;2023-07-31T14:33:17;19.80;99.90
21167;DHT22;10741;52.272;9.580;2023-07-31T14:35:43;19.70;99.90
21167;DHT22;10741;52.272;9.580;2023-07-31T14:38:09;19.60;99.90
21167;DHT22;10741;52.272;9.580;2023-07-31T14:40:35;19.50;99.90
21167;DHT22;10741;52.272;9.580;2023-07-31T14:43:00;19.40;99.90
21167;DHT22;10741;52.272;9.580;2023-07-31T14:45:26;19.40;99.90
21167;DHT22;10741;52.272;9.580;2023-07-31T14:47:52;19.40;99.90
21167;DHT22;10741;52.272;9.580;2023-07-31T14:50:19;19.60;99.90
21167;DHT22;10741;52.272;9.580;2023-07-31T14:52:45;19.70;99.90
21167;DHT22;10741;52.272;9.580;2023-07-31T14:55:11;19.80;99.90
21167;DHT22;10741;52.272;9.580;2023-07-31T14:57:37;20.00;99.90
21167;DHT22;10741;52.272;9.580;2023-07-31T15:00:03;20.20;99.90
21167;DHT22;10741;52.272;9.580;2023-07-31T15:02:36;20.40;99.90
21167;DHT22;10741;52.272;9.580;2023-07-31T15:05:02;20.50;99.90
21167;DHT22;10741;52.272;9.580;2023-07-31T15:07:27;20.50;99.90
21167;DHT22;10741;52.272;9.580;2023-07-31T15:09:54;20.40;99.90
21167;DHT22;10741;52.272;9.580;2023-07-31T15:12:19;20.50;99.90
21167;DHT22;10741;52.272;9.580;2023-07-31T15:14:45;20.50;99.90
21167;DHT22;10741;52.272;9.580;2023-07-31T15:17:11;20.70;99.90
21167;DHT22;10741;52.272;9.580;2023-07-31T15:19:37;20.60;99.90
21167;DHT22;10741;52.272;9.580;2023-07-31T15:22:03;20.50;99.90
21167;DHT22;10741;52.272;9.580;2023-07-31T15:24:30;20.40;99.90
21167;DHT22;10741;52.272;9.580;2023-07-31T15:26:56;20.30;99.90
21167;DHT22;10741;52.272;9.580;2023-07-31T15:29:22;20.00;99.90
21167;DHT22;10741;52.272;9.580;2023-07-31T15:31:48;19.70;99.90
21167;DHT22;10741;52.272;9.580;2023-07-31T15:34:14;19.40;99.90
21167;DHT22;10741;52.272;9.580;2023-07-31T15:36:41;19.40;99.90
21167;DHT22;10741;52.272;9.580;2023-07-31T15:39:07;19.30;99.90
21167;DHT22;10741;52.272;9.580;2023-07-31T15:41:37;19.10;99.90
21167;DHT22;10741;52.272;9.580;2023-07-31T15:44:03;19.10;99.90
21167;DHT22;10741;52.272;9.580;2023-07-31T15:46:29;19.00;99.90